OH6DL-15 Weather Reports


Display with metric or nautical units.
time (UTC)temp
F
wind
direction
speed
MPH
gust
MPH
rain 1hr
in
rain 24hr
in
rain mn
in
humidity
%
barometer
mb
20260507070903 45 269 4.0 7.0 0.00 0.00 0.00 47 1014.7
20260507070008 45 264 2.0 6.0 0.00 0.00 0.00 48 1014.8
20260507065403 45 275 2.0 4.0 0.00 0.00 0.00 49 1014.9
20260507064503 44 292 2.0 2.0 0.00 0.00 0.00 57 1015.1
20260507063815 44 299 2.0 4.0 0.00 0.00 0.00 59 1014.9
20260507062703 43 319 2.0 2.0 0.00 0.00 0.00 61 1015.0
20260507061803 45 43 0.0 2.0 0.00 0.00 0.00 60 1014.8
20260507060903 44 57 2.0 4.0 0.00 0.00 0.00 59 1014.8
20260507060003 45 70 2.0 4.0 0.00 0.00 0.00 53 1014.8
20260507055403 45 74 0.0 4.0 0.00 0.00 0.00 53 1014.8
20260507054713 45 78 2.0 4.0 0.00 0.00 0.00 54 1014.7
20260507053603 44 88 1.0 4.0 0.00 0.00 0.00 56 1014.7
20260507052703 42 118 2.0 4.0 0.00 0.00 0.00 64 1014.6
20260507051803 42 108 2.0 4.0 0.00 0.00 0.00 62 1014.7
20260507050903 42 101 0.0 2.0 0.00 0.00 0.00 65 1014.9
20260507050003 41 88 0.0 2.0 0.00 0.00 0.00 68 1014.9
20260507045616 41 90 0.0 2.0 0.00 0.00 0.00 69 1014.7
20260507044503 38 90 0.0 2.0 0.00 0.00 0.00 75 1015.1
20260507043816 36 67 0.0 2.0 0.00 0.00 0.00 80 1014.8
20260507042703 34 90 0.0 2.0 0.00 0.00 0.00 88 1014.9
20260507041803 32 0 0.0 0.0 0.00 0.00 0.00 92 1015.1
20260507040903 31 0 0.0 0.0 0.00 0.00 0.00 96 1015.0
20260507040004 30 84 0.0 2.0 0.00 0.00 0.00 98 1015.2
20260507035403 30 79 0.0 2.0 0.00 0.00 0.00 98 1014.9
20260507034503 30 87 1.0 2.0 0.00 0.00 0.00 98 1014.9
20260507033603 29 0 0.0 0.0 0.00 0.00 0.00 99 1015.1
20260507032703 29 90 0.0 2.0 0.00 0.00 0.00 99 1015.0
20260507031803 28 0 0.0 0.0 0.00 0.00 0.00 99 1014.9
20260507030903 28 90 0.0 2.0 0.00 0.00 0.00 99 1015.0
20260507030003 28 0 0.0 0.0 0.00 0.00 0.00 98 1015.0
20260507025613 28 90 0.0 2.0 0.00 0.00 0.00 98 1015.1
20260507024715 28 90 0.0 2.0 0.00 0.00 0.00 98 1014.9
20260507023603 28 95 1.0 4.0 0.00 0.00 0.00 98 1014.8
20260507022703 28 84 2.0 2.0 0.00 0.00 0.00 98 1014.8
20260507021803 27 45 0.0 2.0 0.00 0.00 0.00 98 1014.6
20260507020903 27 45 0.0 2.0 0.00 0.00 0.00 98 1014.9
20260507020003 28 45 2.0 4.0 0.00 0.00 0.00 98 1014.5
20260507015403 28 39 2.0 4.0 0.00 0.00 0.00 98 1014.6
20260507014503 28 22 0.0 2.0 0.00 0.00 0.00 97 1014.6
20260507013603 28 22 0.0 2.0 0.00 0.00 0.00 98 1014.5
20260507012915 28 22 0.0 2.0 0.00 0.00 0.00 98 1014.7
20260507011803 28 22 0.0 2.0 0.00 0.00 0.00 97 1014.5
20260507010903 28 22 0.0 2.0 0.00 0.00 0.00 97 1014.4
20260507010003 28 22 0.0 2.0 0.00 0.00 0.00 96 1014.3
20260507005403 29 22 1.0 2.0 0.00 0.00 0.00 96 1014.2
20260507004504 29 22 1.0 2.0 0.00 0.00 0.00 95 1014.4
20260507003603 29 0 0.0 0.0 0.00 0.00 0.00 95 1014.2
20260507002703 29 22 0.0 2.0 0.00 0.00 0.00 94 1014.0
20260507001803 29 22 1.0 2.0 0.00 0.00 0.00 91 1014.1
20260507000903 29 0 0.0 0.0 0.00 0.00 0.00 93 1013.9
20260507000004 29 22 0.0 2.0 0.00 0.00 0.00 94 1014.0
20260506235403 29 22 1.0 2.0 0.00 0.00 0.00 95 1014.3
20260506234503 29 22 0.0 2.0 0.00 0.00 0.00 94 1013.7
20260506233603 29 22 0.0 2.0 0.00 0.00 0.00 93 1013.8
20260506232703 31 5 1.0 2.0 0.00 0.00 0.00 92 1013.8
20260506232014 30 360 2.0 2.0 0.00 0.00 0.00 90 1013.8
20260506230903 31 360 1.0 2.0 0.00 0.00 0.00 92 1013.8
20260506230003 31 337 0.0 2.0 0.00 0.00 0.00 91 1013.8
20260506225615 31 337 0.0 2.0 0.00 0.00 0.00 91 1013.7
20260506224503 32 337 2.0 2.0 0.00 0.00 0.00 90 1013.8
20260506223815 32 0 0.0 0.0 0.00 0.00 0.00 87 1013.6
20260506222703 32 337 0.0 2.0 0.00 0.00 0.00 85 1013.6
20260506221803 32 309 0.0 2.0 0.00 0.00 0.00 84 1013.6
20260506220903 32 292 0.0 2.0 0.00 0.00 0.00 85 1013.4
20260506220003 33 292 0.0 2.0 0.00 0.00 0.00 80 1013.4
20260506215404 34 292 0.0 2.0 0.00 0.00 0.00 78 1013.4
20260506214503 34 292 0.0 2.0 0.00 0.00 0.00 78 1013.3
20260506213816 34 292 1.0 2.0 0.00 0.00 0.00 79 1013.3
20260506212703 35 0 0.0 0.0 0.00 0.00 0.00 76 1013.2
20260506212015 36 292 0.0 2.0 0.00 0.00 0.00 75 1013.4
20260506210903 37 277 0.0 2.0 0.00 0.00 0.00 73 1013.1
20260506210215 37 272 1.0 2.0 0.00 0.00 0.00 71 1012.9
20260506205403 38 274 1.0 2.0 0.00 0.00 0.00 66 1013.3
20260506204503 38 274 1.0 2.0 0.00 0.00 0.00 63 1013.3
20260506203603 39 284 1.0 2.0 0.00 0.00 0.00 63 1013.2
20260506202703 38 270 0.0 2.0 0.00 0.00 0.00 64 1013.1
20260506201803 38 0 0.0 0.0 0.00 0.00 0.00 65 1013.1
20260506200903 39 270 0.0 2.0 0.00 0.00 0.00 67 1012.8
20260506200216 39 0 0.0 0.0 0.00 0.00 0.00 68 1013.0
20260506195617 39 280 0.0 2.0 0.00 0.00 0.00 65 1012.7
20260506194714 39 272 0.0 2.0 0.00 0.00 0.00 63 1012.6
20260506193603 39 284 0.0 4.0 0.00 0.00 0.00 62 1012.5
20260506192703 40 288 0.0 4.0 0.00 0.00 0.00 61 1012.9
20260506192017 42 289 2.0 4.0 0.00 0.00 0.00 60 1012.5
20260506190903 42 278 0.0 2.0 0.00 0.00 0.00 59 1012.4
20260506190004 43 287 2.0 4.0 0.00 0.00 0.00 57 1012.4
20260506185403 43 289 2.0 4.0 0.00 0.00 0.00 57 1012.3
20260506184503 44 302 2.0 4.0 0.00 0.00 0.00 55 1012.5
20260506183603 44 305 2.0 4.0 0.00 0.00 0.00 57 1012.3
20260506182915 44 304 2.0 4.0 0.00 0.00 0.00 53 1012.1
20260506181803 45 312 2.0 4.0 0.00 0.00 0.00 51 1012.1
20260506180903 45 311 2.0 4.0 0.00 0.00 0.00 49 1011.9
20260506180004 45 307 2.0 4.0 0.00 0.00 0.00 49 1011.9
20260506175403 45 307 2.0 4.0 0.00 0.00 0.00 50 1011.7
20260506174503 46 312 2.0 6.0 0.00 0.00 0.00 53 1011.8
20260506173603 46 308 2.0 4.0 0.00 0.00 0.00 48 1011.9
20260506172703 46 313 2.0 6.0 0.00 0.00 0.00 52 1011.7
20260506172013 46 314 2.0 4.0 0.00 0.00 0.00 52 1011.4
20260506170903 48 318 2.0 6.0 0.00 0.00 0.00 45 1011.6
20260506170004 48 326 2.0 7.0 0.00 0.00 0.00 44 1011.5
20260506165403 48 316 4.0 6.0 0.00 0.00 0.00 47 1011.4
20260506164503 48 311 3.0 6.0 0.00 0.00 0.00 43 1011.2
20260506163603 47 314 3.0 6.0 0.00 0.00 0.00 45 1011.4
20260506162916 47 313 2.0 6.0 0.00 0.00 0.00 45 1011.1
20260506161803 47 311 2.0 6.0 0.00 0.00 0.00 44 1011.2
20260506160903 47 323 3.0 7.0 0.00 0.00 0.00 46 1011.1
20260506160213 48 319 4.0 7.0 0.00 0.00 0.00 44 1011.2
20260506155403 49 310 2.0 8.0 0.00 0.00 0.00 43 1011.1
20260506154503 49 313 3.0 8.0 0.00 0.00 0.00 41 1011.0
20260506153603 49 317 2.0 6.0 0.00 0.00 0.00 41 1011.1
20260506152703 49 316 2.0 7.0 0.00 0.00 0.00 42 1011.0
20260506151803 49 307 3.0 7.0 0.00 0.00 0.00 41 1010.9
20260506151116 48 317 4.0 11.0 0.00 0.00 0.00 37 1011.0
20260506150003 48 317 4.0 8.0 0.00 0.00 0.00 41 1011.0
20260506145403 49 319 3.0 7.0 0.00 0.00 0.00 36 1011.1
20260506144503 49 321 4.0 8.0 0.00 0.00 0.00 41 1010.9
20260506143603 48 305 3.0 11.0 0.00 0.00 0.00 43 1011.0
20260506142703 48 304 4.0 11.0 0.00 0.00 0.00 42 1010.9
20260506141803 49 310 3.0 8.0 0.00 0.00 0.00 43 1010.7
20260506141117 48 309 5.0 7.0 0.00 0.00 0.00 42 1010.8
20260506140003 49 316 4.0 8.0 0.00 0.00 0.00 39 1010.8
20260506135403 49 315 4.0 9.0 0.00 0.00 0.00 41 1010.8
20260506134503 48 315 4.0 11.0 0.00 0.00 0.00 41 1010.8
20260506133603 48 306 3.0 11.0 0.00 0.00 0.00 37 1010.7
20260506132703 48 303 3.0 9.0 0.00 0.00 0.00 37 1010.6
20260506131804 48 300 5.0 11.0 0.00 0.00 0.00 39 1010.5
20260506130903 48 311 5.0 11.0 0.00 0.00 0.00 36 1010.4
20260506130215 48 308 5.0 8.0 0.00 0.00 0.00 42 1010.3
20260506125403 47 317 4.0 11.0 0.00 0.00 0.00 39 1010.2
20260506124503 48 312 6.0 11.0 0.00 0.00 0.00 41 1010.3
20260506123603 48 316 4.0 8.0 0.00 0.00 0.00 44 1010.4
20260506122703 48 313 4.0 8.0 0.00 0.00 0.00 41 1010.4
20260506122016 47 316 5.0 9.0 0.00 0.00 0.00 43 1010.5
20260506120903 47 306 4.0 11.0 0.00 0.00 0.00 41 1010.1
20260506120004 47 304 4.0 15.0 0.00 0.00 0.00 43 1010.4
20260506115403 47 323 4.0 8.0 0.00 0.00 0.00 43 1010.2
20260506114503 47 312 5.0 8.0 0.00 0.00 0.00 44 1010.1
20260506113603 46 319 4.0 9.0 0.00 0.00 0.00 46 1010.1
20260506112703 47 309 3.0 8.0 0.00 0.00 0.00 41 1009.8
20260506111803 47 309 4.0 8.0 0.00 0.00 0.00 43 1009.9
20260506110903 47 314 4.0 8.0 0.00 0.00 0.00 43 1009.9
20260506110003 46 311 4.0 8.0 0.00 0.00 0.00 50 1009.8
20260506105613 47 312 4.0 8.0 0.00 0.00 0.00 48 1009.8
20260506104503 46 313 4.0 8.0 0.00 0.00 0.00 46 1010.0
20260506103603 46 311 5.0 8.0 0.00 0.00 0.00 50 1009.9
20260506102703 46 308 4.0 11.0 0.00 0.00 0.00 47 1009.8
20260506101803 46 311 5.0 11.0 0.00 0.00 0.00 46 1009.6
20260506100903 45 313 3.0 8.0 0.00 0.00 0.00 48 1009.7
20260506100217 46 308 4.0 11.0 0.00 0.00 0.00 45 1009.7
20260506095403 45 309 4.0 9.0 0.00 0.00 0.00 50 1009.6
20260506094503 45 312 5.0 11.0 0.00 0.00 0.00 50 1009.5
20260506093603 44 310 3.0 8.0 0.00 0.00 0.00 53 1009.4
20260506092703 45 309 3.0 9.0 0.00 0.00 0.00 57 1009.5
20260506091803 45 303 4.0 11.0 0.00 0.00 0.00 51 1009.2
20260506091115 45 316 6.0 9.0 0.00 0.00 0.00 50 1009.2
20260506090003 44 314 4.0 11.0 0.00 0.00 0.00 51 1009.5
20260506085403 44 309 5.0 11.0 0.00 0.00 0.00 53 1009.3
20260506084503 44 317 4.0 8.0 0.00 0.00 0.00 52 1009.3
20260506083603 44 309 4.0 9.0 0.00 0.00 0.00 52 1008.9
20260506082916 43 311 5.0 9.0 0.00 0.00 0.00 52 1008.9
20260506081803 43 313 4.0 13.0 0.00 0.00 0.00 53 1009.0
20260506080903 43 319 4.0 8.0 0.00 0.00 0.00 55 1008.9
20260506080213 43 312 5.0 11.0 0.00 0.00 0.00 57 1008.7
20260506072704 42 314 7.0 14.0 0.00 0.00 0.00 62 1008.4
20260506071803 42 303 4.0 13.0 0.00 0.00 0.00 57 1008.6